EDXW/GWT METAR and TAF weather

Enter ICAO airport designator
Station Type Date Time Source
EDXW METAR 2022/08/12 14:20 UTC NOAA

EDXW 121420Z 07006KT 020V110 CAVOK 28/10 Q1021


Station Type Date Time Source
EDXW Decoded METAR 2022/08/12 14:20 UTC NOAA

Westerland / Sylt, Germany (EDXW) 54-55N 008-21E 20M
Aug 12, 2022 - 10:20 AM EDT / 2022.08.12 1420 UTC
Wind: from the ENE (070 degrees) at 7 MPH (6 KT) (direction variable):0
Visibility: greater than 7 mile(s):0
Temperature: 82 F (28 C)
Dew Point: 50 F (10 C)
Relative Humidity: 32%
Pressure (altimeter): 30.15 in. Hg (1021 hPa)
ob: EDXW 121420Z 07006KT 020V110 CAVOK 28/10 Q1021
cycle: 14

Station Type Date Time Source
EDXW TAF 2009/07/07 14:00 UTC NOAA

TAF EDXW 071400Z 0715/0719 22015G25KT 9999 SCT020

Example: see airport list